首页
METAR-TAF:

METAR-TAF

机场 :

Hawarden, 威尔士

纬度: 53-10N, 经度: 002-59W, 海拔: 10米

当前天气观测

该预报发布于8小时和27分钟前的20:50 UTC
风速2节,风向
温度 0°C
湿度 93%
气压 1018 hPa
能见度10公里或以上
1500米以下无云,无积雨云

METAR: EGNR 182050Z 17002KT CAVOK M00/M01 Q1018

时间: 05:17 (05:17 UTC)

预报

该预报发布于12小时和19分钟前的16:58 UTC
预报有效从18日的 18点(UTC)到 18日的 21点(UTC)
风速3节,风向多变
能见度10公里或以上
少量云层高于3000英尺
几率 30%
从 18日的 19点(UTC)到 18日的 21点(UTC)
能見度: 8000

TAF: EGNR 181658Z 1818/1821 VRB03KT 9999 FEW030 PROB30 1819/1821 8000

超过4000个机场的气象观测和天气预报(METAR&TAF报告)。

可查询的气象台以黄色和红色小点在地图上表示。

将鼠标移到小点上方,可查看气象台名称。

然后点击查看天气观测和预报。

如需切换地图:点击带黑十字的绿色按钮放大地图;点击带横线的绿色按钮缩小地图;或者点击绿色箭头查看邻近地区的地图。


METAR-TAF: